King of Scandinavia — OVOL2 — position and weather

sailwx.info

Track history (hours):
 
Tides and Currents Weather Stations Pressure Air Temp Water Temp Dewpoint Dewpoint Depression Visibility Wind Speed Wind Dir Waves Ship Positions

King of Scandinavia

Ship's website: http://www.dfds.co.uk/DSW/EN/OnBoard/na/KING.htm

Last reported at 2016-Aug-25 18:31 UTC. Time now 2016-Aug-26 01:32 UTC.
Position N 52°56' E 003°40'.

Length 166 m; beam 27.6 m; draft 6.2 m.

Type: Ship. MMSI: 220449000.

Date/timePositionNaut miles runAvg speedWind from/ knotsBaromVisibWave heightAir tempDewpointWater temp
2016-Aug-25 18:31N 52°56' E 003°40'1616.5
2016-Aug-25 17:33N 52°45' E 003°60'1615.8
2016-Aug-25 16:33N 52°35' E 004°19'1211.8
2016-Aug-25 15:33N 52°28' E 004°35'0 0.0
2016-Aug-25 14:31N 52°28' E 004°35'0 0.0
2016-Aug-25 13:31N 52°28' E 004°35'0 0.0
2016-Aug-25 12:31N 52°28' E 004°35'0 0.0
2016-Aug-25 11:31N 52°28' E 004°35'0 0.0
2016-Aug-25 10:31N 52°28' E 004°35'0 0.0
2016-Aug-25 09:31N 52°28' E 004°35'0 0.0
2016-Aug-25 07:32N 52°28' E 004°35'8 8.5
2016-Aug-25 06:33N 52°32' E 004°24'3417.1
2016-Aug-25 04:34N 52°54' E 003°40'3215.9
2016-Aug-25 02:33N 53°15' E 003°01'1716.6
2016-Aug-25 01:33N 53°26' E 002°40'2318.8
2016-Aug-25 00:19N 53°41' E 002°10'3819.3
2016-Aug-24 22:22N 54°01' E 001°16'1519.2
2016-Aug-24 21:33N 54°09' E 000°54'2019.3
2016-Aug-24 20:32N 54°20' E 000°25'1919.2
2016-Aug-24 19:34N 54°30' W 000°02'2718.9
2016-Aug-24 18:06N 54°45' W 000°42'1118.5
2016-Aug-24 17:32N 54°51' W 000°57'1717.3
2016-Aug-24 16:34N 54°60' W 001°21'3 3.3
2016-Aug-24 15:33N 54°59' W 001°27'0 0.0
2016-Aug-24 14:29N 54°59' W 001°27'0 0.0
2016-Aug-24 13:29N 54°59' W 001°27'0 0.0
2016-Aug-24 12:29N 54°59' W 001°27'0 0.0
2016-Aug-24 11:32N 54°59' W 001°27'0 0.0
2016-Aug-24 10:32N 54°59' W 001°27'0 0.0
2016-Aug-24 09:32N 54°59' W 001°27'0 0.0
2016-Aug-24 08:32N 54°59' W 001°27'4 4.1
2016-Aug-24 07:33N 55°01' W 001°20'1515.2
2016-Aug-24 06:33N 54°52' W 000°58'3115.3
2016-Aug-24 04:34N 54°36' W 000°14'1616.1
2016-Aug-24 03:34N 54°28' E 000°10'1717.3
2016-Aug-24 02:33N 54°18' E 000°35'15417.1
2016-Aug-23 17:33N 52°45' E 004°01'1616.4
2016-Aug-23 16:33N 52°34' E 004°21'1110.8
2016-Aug-23 15:33N 52°28' E 004°35'0 0.0
2016-Aug-23 14:28N 52°28' E 004°35'0 0.0
2016-Aug-23 13:31N 52°28' E 004°35'0 0.0
2016-Aug-23 12:31N 52°28' E 004°35'0 0.0
2016-Aug-23 11:31N 52°28' E 004°35'0 0.0
2016-Aug-23 10:31N 52°28' E 004°35'0 0.0
2016-Aug-23 09:31N 52°28' E 004°35'0 0.0
2016-Aug-23 08:31N 52°28' E 004°35'0 0.2
2016-Aug-23 07:34N 52°28' E 004°35'1212.5
2016-Aug-23 06:33N 52°35' E 004°18'1515.1
2016-Aug-23 05:33N 52°45' E 003°60'14816.4
2016-Aug-22 20:31N 54°15' E 000°41'1919.9
2016-Aug-22 19:34N 54°25' E 000°13'2020.1
2016-Aug-22 18:33N 54°36' W 000°16'2120.0
2016-Aug-22 17:31N 54°47' W 000°46'1919.4
2016-Aug-22 16:33N 54°57' W 001°14'8 8.1
2016-Aug-22 15:34N 54°59' W 001°27'0 0.0
2016-Aug-22 14:32N 54°59' W 001°27'0 0.0
2016-Aug-22 13:32N 54°59' W 001°27'0 0.0
2016-Aug-22 12:32N 54°59' W 001°27'0 0.0
2016-Aug-22 11:32N 54°59' W 001°27'0 0.0
2016-Aug-22 10:32N 54°59' W 001°27'0 0.0
2016-Aug-22 09:32N 54°59' W 001°27'0 0.0
2016-Aug-22 08:33N 54°59' W 001°27'5 4.6
2016-Aug-22 07:33N 55°01' W 001°19'1515.0
2016-Aug-22 06:33N 54°53' W 000°57'3216.0
2016-Aug-22 04:33N 54°35' W 000°11'1515.1
2016-Aug-22 03:34N 54°27' E 000°11'15517.2
2016-Aug-21 18:33N 52°55' E 003°42'1716.7
2016-Aug-21 17:32N 52°44' E 004°03'1515.6
2016-Aug-21 16:33N 52°34' E 004°21'1010.2
2016-Aug-21 15:34N 52°28' E 004°35'0 0.0
2016-Aug-21 14:33N 52°28' E 004°35'0 0.0
2016-Aug-21 13:33N 52°28' E 004°35'0 0.0
2016-Aug-21 12:33N 52°28' E 004°35'0 0.0
2016-Aug-21 11:33N 52°28' E 004°35'0 0.0
2016-Aug-21 10:33N 52°28' E 004°35'0 0.0
2016-Aug-21 09:33N 52°28' E 004°35'0 0.0
2016-Aug-21 08:33N 52°28' E 004°35'0 0.2
2016-Aug-21 07:34N 52°28' E 004°35'1514.8
2016-Aug-21 06:33N 52°37' E 004°15'16117.0
2016-Aug-20 21:06N 54°15' E 000°41'1018.0
2016-Aug-20 20:34N 54°20' E 000°27'1818.3
2016-Aug-20 19:34N 54°30' E 000°00'1918.8
2016-Aug-20 18:33N 54°40' W 000°28'1918.9
2016-Aug-20 17:34N 54°50' W 000°55'1918.7
2016-Aug-20 16:34N 55°00' W 001°22'3 3.0
2016-Aug-20 15:33N 54°59' W 001°27'0 0.0
2016-Aug-20 14:33N 54°59' W 001°27'0 0.0
2016-Aug-20 13:33N 54°59' W 001°27'0 0.0
2016-Aug-20 12:33N 54°59' W 001°27'0 0.0
2016-Aug-20 11:30N 54°59' W 001°27'0 0.0
2016-Aug-20 10:30N 54°59' W 001°27'0 0.0
2016-Aug-20 09:33N 54°59' W 001°27'0 0.0
2016-Aug-20 08:33N 54°59' W 001°27'4 4.1
2016-Aug-20 07:34N 55°01' W 001°20'1616.0
2016-Aug-20 06:33N 54°51' W 000°58'3416.8
2016-Aug-20 04:33N 54°33' W 000°09'1716.7
2016-Aug-20 03:33N 54°24' E 000°16'1817.3
2016-Aug-20 02:33N 54°15' E 000°41'16616.6
2016-Aug-19 16:33N 52°34' E 004°22'1010.1
2016-Aug-19 15:34N 52°28' E 004°35'0 0.0
2016-Aug-19 14:33N 52°28' E 004°35'0 0.0
2016-Aug-19 13:33N 52°28' E 004°35'0 0.0
2016-Aug-19 12:33N 52°28' E 004°35'0 0.0
2016-Aug-19 11:33N 52°28' E 004°35'0 0.0
2016-Aug-19 10:33N 52°28' E 004°35'0 0.0
2016-Aug-19 09:33N 52°28' E 004°35'0 0.0
2016-Aug-19 08:33N 52°28' E 004°35'0 0.0
2016-Aug-19 07:33N 52°28' E 004°35'1111.3
2016-Aug-19 06:34N 52°34' E 004°20'1615.2
2016-Aug-19 05:30N 52°44' E 003°59'1616.4
2016-Aug-19 04:33N 52°55' E 003°40'1818.2
2016-Aug-19 03:33N 53°07' E 003°17'11618.2
2016-Aug-18 21:10N 54°16' E 000°40'1017.2
2016-Aug-18 20:34N 54°22' E 000°24'1817.5
2016-Aug-18 19:34N 54°31' W 000°01'1818.0
2016-Aug-18 18:34N 54°41' W 000°27'1818.2
2016-Aug-18 17:33N 54°50' W 000°55'1818.3
2016-Aug-18 16:33N 54°60' W 001°21'3 3.4
2016-Aug-18 15:33N 54°59' W 001°27'0 0.0
2016-Aug-18 14:28N 54°59' W 001°27'0 0.0
2016-Aug-18 13:28N 54°59' W 001°27'0 0.0
2016-Aug-18 12:28N 54°59' W 001°27'0 0.0
2016-Aug-18 11:26N 54°59' W 001°27'0 0.0
2016-Aug-18 10:32N 54°59' W 001°27'0 0.0
2016-Aug-18 09:34N 54°59' W 001°27'0 0.0
2016-Aug-18 08:30N 54°59' W 001°27'5 5.7
2016-Aug-18 07:34N 54°60' W 001°18'1716.6
2016-Aug-18 06:33N 54°51' W 000°53'1616.2
2016-Aug-18 05:32N 54°42' W 000°29'1717.1
2016-Aug-18 04:33N 54°33' W 000°05'1717.3
2016-Aug-18 03:33N 54°23' E 000°20'2116.9
2016-Aug-18 02:20N 54°12' E 000°50'1316.4
2016-Aug-18 01:33N 54°05' E 001°08'1717.2
2016-Aug-18 00:33N 53°55' E 001°32'1717.4
2016-Aug-17 23:33N 53°46' E 001°57'1717.1
2016-Aug-17 22:34N 53°36' E 002°20'1816.4
2016-Aug-17 21:26N 53°24' E 002°44'1415.7
2016-Aug-17 20:33N 53°15' E 003°02'1515.4
2016-Aug-17 19:33N 53°05' E 003°21'1515.1
2016-Aug-17 18:34N 52°55' E 003°39'3216.0
2016-Aug-17 16:33N 52°34' E 004°20'1111.4
2016-Aug-17 15:34N 52°28' E 004°35'0 0.0
2016-Aug-17 14:33N 52°28' E 004°35'0 0.0
2016-Aug-17 13:33N 52°28' E 004°35'0 0.0
2016-Aug-17 12:34N 52°28' E 004°35'0 0.0
2016-Aug-17 11:33N 52°28' E 004°35'0 0.0
2016-Aug-17 10:34N 52°28' E 004°35'0 0.0
2016-Aug-17 09:33N 52°28' E 004°35'0 0.0
2016-Aug-17 08:34N 52°28' E 004°35'0 0.1
2016-Aug-17 07:34N 52°28' E 004°35'1515.3
2016-Aug-17 06:33N 52°37' E 004°14'10717.9
2016-Aug-17 00:34N 53°46' E 001°57'1716.9
2016-Aug-16 23:32N 53°55' E 001°33'3416.9
2016-Aug-16 21:31N 54°14' E 000°44'1617.2
2016-Aug-16 20:34N 54°23' E 000°20'1717.2
2016-Aug-16 19:34N 54°33' W 000°04'1717.2
2016-Aug-16 18:34N 54°42' W 000°29'1817.6
2016-Aug-16 17:34N 54°51' W 000°55'1817.7
2016-Aug-16 16:34N 55°00' W 001°22'3 3.1
2016-Aug-16 15:33N 54°59' W 001°27'0 0.0
2016-Aug-16 14:33N 54°59' W 001°27'0 0.0
2016-Aug-16 13:33N 54°59' W 001°27'0 0.0
2016-Aug-16 12:33N 54°59' W 001°27'0 0.0
2016-Aug-16 11:33N 54°59' W 001°27'0 0.0
2016-Aug-16 10:34N 54°59' W 001°27'0 0.0
2016-Aug-16 09:34N 54°59' W 001°27'0 0.0
2016-Aug-16 08:34N 54°59' W 001°27'5 4.9
2016-Aug-16 07:34N 54°60' W 001°18'5217.3
2016-Aug-16 04:34N 54°32' W 000°03'1515.5
2016-Aug-16 03:34N 54°23' E 000°20'  
Track history (hours):
 
Tides and Currents Weather Stations Pressure Air Temp Water Temp Dewpoint Dewpoint Depression Visibility Wind Speed Wind Dir Waves Ship Positions

King of Scandinavia

Ship's website: http://www.dfds.co.uk/DSW/EN/OnBoard/na/KING.htm

Last reported at 2016-Aug-25 18:31 UTC. Time now 2016-Aug-26 01:32 UTC.
Position N 52°56' E 003°40'.

Length 166 m; beam 27.6 m; draft 6.2 m.

Type: Ship. MMSI: 220449000.

Date/timePositionNaut miles runAvg speedWind from/ knotsBaromVisibWave heightAir tempDewpointWater temp
2016-Aug-25 18:31N 52°56' E 003°40'1616.5
2016-Aug-25 17:33N 52°45' E 003°60'1615.8
2016-Aug-25 16:33N 52°35' E 004°19'1211.8
2016-Aug-25 15:33N 52°28' E 004°35'0 0.0
2016-Aug-25 14:31N 52°28' E 004°35'0 0.0
2016-Aug-25 13:31N 52°28' E 004°35'0 0.0
2016-Aug-25 12:31N 52°28' E 004°35'0 0.0
2016-Aug-25 11:31N 52°28' E 004°35'0 0.0
2016-Aug-25 10:31N 52°28' E 004°35'0 0.0
2016-Aug-25 09:31N 52°28' E 004°35'0 0.0
2016-Aug-25 07:32N 52°28' E 004°35'8 8.5
2016-Aug-25 06:33N 52°32' E 004°24'3417.1
2016-Aug-25 04:34N 52°54' E 003°40'3215.9
2016-Aug-25 02:33N 53°15' E 003°01'1716.6
2016-Aug-25 01:33N 53°26' E 002°40'2318.8
2016-Aug-25 00:19N 53°41' E 002°10'3819.3
2016-Aug-24 22:22N 54°01' E 001°16'1519.2
2016-Aug-24 21:33N 54°09' E 000°54'2019.3
2016-Aug-24 20:32N 54°20' E 000°25'1919.2
2016-Aug-24 19:34N 54°30' W 000°02'2718.9
2016-Aug-24 18:06N 54°45' W 000°42'1118.5
2016-Aug-24 17:32N 54°51' W 000°57'1717.3
2016-Aug-24 16:34N 54°60' W 001°21'3 3.3
2016-Aug-24 15:33N 54°59' W 001°27'0 0.0
2016-Aug-24 14:29N 54°59' W 001°27'0 0.0
2016-Aug-24 13:29N 54°59' W 001°27'0 0.0
2016-Aug-24 12:29N 54°59' W 001°27'0 0.0
2016-Aug-24 11:32N 54°59' W 001°27'0 0.0
2016-Aug-24 10:32N 54°59' W 001°27'0 0.0
2016-Aug-24 09:32N 54°59' W 001°27'0 0.0
2016-Aug-24 08:32N 54°59' W 001°27'4 4.1
2016-Aug-24 07:33N 55°01' W 001°20'1515.2
2016-Aug-24 06:33N 54°52' W 000°58'3115.3
2016-Aug-24 04:34N 54°36' W 000°14'1616.1
2016-Aug-24 03:34N 54°28' E 000°10'1717.3
2016-Aug-24 02:33N 54°18' E 000°35'15417.1
2016-Aug-23 17:33N 52°45' E 004°01'1616.4
2016-Aug-23 16:33N 52°34' E 004°21'1110.8
2016-Aug-23 15:33N 52°28' E 004°35'0 0.0
2016-Aug-23 14:28N 52°28' E 004°35'0 0.0
2016-Aug-23 13:31N 52°28' E 004°35'0 0.0
2016-Aug-23 12:31N 52°28' E 004°35'0 0.0
2016-Aug-23 11:31N 52°28' E 004°35'0 0.0
2016-Aug-23 10:31N 52°28' E 004°35'0 0.0
2016-Aug-23 09:31N 52°28' E 004°35'0 0.0
2016-Aug-23 08:31N 52°28' E 004°35'0 0.2
2016-Aug-23 07:34N 52°28' E 004°35'1212.5
2016-Aug-23 06:33N 52°35' E 004°18'1515.1
2016-Aug-23 05:33N 52°45' E 003°60'14816.4
2016-Aug-22 20:31N 54°15' E 000°41'1919.9
2016-Aug-22 19:34N 54°25' E 000°13'2020.1
2016-Aug-22 18:33N 54°36' W 000°16'2120.0
2016-Aug-22 17:31N 54°47' W 000°46'1919.4
2016-Aug-22 16:33N 54°57' W 001°14'8 8.1
2016-Aug-22 15:34N 54°59' W 001°27'0 0.0
2016-Aug-22 14:32N 54°59' W 001°27'0 0.0
2016-Aug-22 13:32N 54°59' W 001°27'0 0.0
2016-Aug-22 12:32N 54°59' W 001°27'0 0.0
2016-Aug-22 11:32N 54°59' W 001°27'0 0.0
2016-Aug-22 10:32N 54°59' W 001°27'0 0.0
2016-Aug-22 09:32N 54°59' W 001°27'0 0.0
2016-Aug-22 08:33N 54°59' W 001°27'5 4.6
2016-Aug-22 07:33N 55°01' W 001°19'1515.0
2016-Aug-22 06:33N 54°53' W 000°57'3216.0
2016-Aug-22 04:33N 54°35' W 000°11'1515.1
2016-Aug-22 03:34N 54°27' E 000°11'15517.2
2016-Aug-21 18:33N 52°55' E 003°42'1716.7
2016-Aug-21 17:32N 52°44' E 004°03'1515.6
2016-Aug-21 16:33N 52°34' E 004°21'1010.2
2016-Aug-21 15:34N 52°28' E 004°35'0 0.0
2016-Aug-21 14:33N 52°28' E 004°35'0 0.0
2016-Aug-21 13:33N 52°28' E 004°35'0 0.0
2016-Aug-21 12:33N 52°28' E 004°35'0 0.0
2016-Aug-21 11:33N 52°28' E 004°35'0 0.0
2016-Aug-21 10:33N 52°28' E 004°35'0 0.0
2016-Aug-21 09:33N 52°28' E 004°35'0 0.0
2016-Aug-21 08:33N 52°28' E 004°35'0 0.2
2016-Aug-21 07:34N 52°28' E 004°35'1514.8
2016-Aug-21 06:33N 52°37' E 004°15'16117.0
2016-Aug-20 21:06N 54°15' E 000°41'1018.0
2016-Aug-20 20:34N 54°20' E 000°27'1818.3
2016-Aug-20 19:34N 54°30' E 000°00'1918.8
2016-Aug-20 18:33N 54°40' W 000°28'1918.9
2016-Aug-20 17:34N 54°50' W 000°55'1918.7
2016-Aug-20 16:34N 55°00' W 001°22'3 3.0
2016-Aug-20 15:33N 54°59' W 001°27'0 0.0
2016-Aug-20 14:33N 54°59' W 001°27'0 0.0
2016-Aug-20 13:33N 54°59' W 001°27'0 0.0
2016-Aug-20 12:33N 54°59' W 001°27'0 0.0
2016-Aug-20 11:30N 54°59' W 001°27'0 0.0
2016-Aug-20 10:30N 54°59' W 001°27'0 0.0
2016-Aug-20 09:33N 54°59' W 001°27'0 0.0
2016-Aug-20 08:33N 54°59' W 001°27'4 4.1
2016-Aug-20 07:34N 55°01' W 001°20'1616.0
2016-Aug-20 06:33N 54°51' W 000°58'3416.8
2016-Aug-20 04:33N 54°33' W 000°09'1716.7
2016-Aug-20 03:33N 54°24' E 000°16'1817.3
2016-Aug-20 02:33N 54°15' E 000°41'16616.6
2016-Aug-19 16:33N 52°34' E 004°22'1010.1
2016-Aug-19 15:34N 52°28' E 004°35'0 0.0
2016-Aug-19 14:33N 52°28' E 004°35'0 0.0
2016-Aug-19 13:33N 52°28' E 004°35'0 0.0
2016-Aug-19 12:33N 52°28' E 004°35'0 0.0
2016-Aug-19 11:33N 52°28' E 004°35'0 0.0
2016-Aug-19 10:33N 52°28' E 004°35'0 0.0
2016-Aug-19 09:33N 52°28' E 004°35'0 0.0
2016-Aug-19 08:33N 52°28' E 004°35'0 0.0
2016-Aug-19 07:33N 52°28' E 004°35'1111.3
2016-Aug-19 06:34N 52°34' E 004°20'1615.2
2016-Aug-19 05:30N 52°44' E 003°59'1616.4
2016-Aug-19 04:33N 52°55' E 003°40'1818.2
2016-Aug-19 03:33N 53°07' E 003°17'11618.2
2016-Aug-18 21:10N 54°16' E 000°40'1017.2
2016-Aug-18 20:34N 54°22' E 000°24'1817.5
2016-Aug-18 19:34N 54°31' W 000°01'1818.0
2016-Aug-18 18:34N 54°41' W 000°27'1818.2
2016-Aug-18 17:33N 54°50' W 000°55'1818.3
2016-Aug-18 16:33N 54°60' W 001°21'3 3.4
2016-Aug-18 15:33N 54°59' W 001°27'0 0.0
2016-Aug-18 14:28N 54°59' W 001°27'0 0.0
2016-Aug-18 13:28N 54°59' W 001°27'0 0.0
2016-Aug-18 12:28N 54°59' W 001°27'0 0.0
2016-Aug-18 11:26N 54°59' W 001°27'0 0.0
2016-Aug-18 10:32N 54°59' W 001°27'0 0.0
2016-Aug-18 09:34N 54°59' W 001°27'0 0.0
2016-Aug-18 08:30N 54°59' W 001°27'5 5.7
2016-Aug-18 07:34N 54°60' W 001°18'1716.6
2016-Aug-18 06:33N 54°51' W 000°53'1616.2
2016-Aug-18 05:32N 54°42' W 000°29'1717.1
2016-Aug-18 04:33N 54°33' W 000°05'1717.3
2016-Aug-18 03:33N 54°23' E 000°20'2116.9
2016-Aug-18 02:20N 54°12' E 000°50'1316.4
2016-Aug-18 01:33N 54°05' E 001°08'1717.2
2016-Aug-18 00:33N 53°55' E 001°32'1717.4
2016-Aug-17 23:33N 53°46' E 001°57'1717.1
2016-Aug-17 22:34N 53°36' E 002°20'1816.4
2016-Aug-17 21:26N 53°24' E 002°44'1415.7
2016-Aug-17 20:33N 53°15' E 003°02'1515.4
2016-Aug-17 19:33N 53°05' E 003°21'1515.1
2016-Aug-17 18:34N 52°55' E 003°39'3216.0
2016-Aug-17 16:33N 52°34' E 004°20'1111.4
2016-Aug-17 15:34N 52°28' E 004°35'0 0.0
2016-Aug-17 14:33N 52°28' E 004°35'0 0.0
2016-Aug-17 13:33N 52°28' E 004°35'0 0.0
2016-Aug-17 12:34N 52°28' E 004°35'0 0.0
2016-Aug-17 11:33N 52°28' E 004°35'0 0.0
2016-Aug-17 10:34N 52°28' E 004°35'0 0.0
2016-Aug-17 09:33N 52°28' E 004°35'0 0.0
2016-Aug-17 08:34N 52°28' E 004°35'0 0.1
2016-Aug-17 07:34N 52°28' E 004°35'1515.3
2016-Aug-17 06:33N 52°37' E 004°14'10717.9
2016-Aug-17 00:34N 53°46' E 001°57'1716.9
2016-Aug-16 23:32N 53°55' E 001°33'3416.9
2016-Aug-16 21:31N 54°14' E 000°44'1617.2
2016-Aug-16 20:34N 54°23' E 000°20'1717.2
2016-Aug-16 19:34N 54°33' W 000°04'1717.2
2016-Aug-16 18:34N 54°42' W 000°29'1817.6
2016-Aug-16 17:34N 54°51' W 000°55'1817.7
2016-Aug-16 16:34N 55°00' W 001°22'3 3.1
2016-Aug-16 15:33N 54°59' W 001°27'0 0.0
2016-Aug-16 14:33N 54°59' W 001°27'0 0.0
2016-Aug-16 13:33N 54°59' W 001°27'0 0.0
2016-Aug-16 12:33N 54°59' W 001°27'0 0.0
2016-Aug-16 11:33N 54°59' W 001°27'0 0.0
2016-Aug-16 10:34N 54°59' W 001°27'0 0.0
2016-Aug-16 09:34N 54°59' W 001°27'0 0.0
2016-Aug-16 08:34N 54°59' W 001°27'5 4.9
2016-Aug-16 07:34N 54°60' W 001°18'5217.3
2016-Aug-16 04:34N 54°32' W 000°03'1515.5
2016-Aug-16 03:34N 54°23' E 000°20'  

Dump ship's entire track history